Broadview Heights, OH (44147)

8:52 PM EST on February 22, 2017 (GMT -0500)
Canterbury Estates | | Change Station

Elev 1175 ft 41.33 °N, 81.70 °W | Updated 1 minute ago

Overcast
Overcast
55.2 °F
Feels Like 55.2 °F
N
6.3
Wind Variable Wind from SSE

Today
High -- | Low -- °F
--% Chance of Precip.
Yesterday
High -- | Low -- °F
Precip. -- in
Pressure 29.83 in
Visibility 10.0 miles
Clouds Few 2900 ft
Overcast 3600 ft
Dew Point 54 °F
Humidity 94%
Rainfall 0.14 in
Snow Depth Not available.
7:11 AM 6:09 PM
Waning Crescent, 13% visible
METAR KCLE 230051Z 19008KT 10SM FEW029 OVC036 16/11 A2983 RMK AO2 SLP099 T01560111
Pressure 29.83 in
Visibility 10.0 miles
Clouds Few 2900 ft
Overcast 3600 ft
Dew Point 54 °F
Humidity 94%
Rainfall 0.14 in
Snow Depth Not available.
7:11 AM 6:09 PM
Waning Crescent, 13% visible
METAR KCLE 230051Z 19008KT 10SM FEW029 OVC036 16/11 A2983 RMK AO2 SLP099 T01560111

Get Your Daily Forecast Email!

Thanks for signing up!

Be on the lookout for a verification email in your inbox.

You'll start receiving the daily forecast at 8 AM.

×

10-Day Weather Forecast

Almanac

Astronomy

Feb. 22, 2017 Rise Set
Actual Time
Civil Twilight
Nautical Twilight
Astronomical Twilight
Moon
Length of Visible Light
Length of Day
Tomorrow will be .
, % of the Moon is Illuminated

Today's Extremes

State Highs State Lows

Community

WunderPhotos

Upload Photos

1,962,540 photos uploaded!

WunderBlog® & News

Nearby

Air Quality

  Air Quality AQ Index Pollutant
Not available.

Snow Depth

Station Depth Elevation

Earthquake Activity

City Distance Mag. Time & Date
Minimum magnitude displayed is 2.5.

Coastal Water Temperatures

Place Temperature

Stations

Nearby Weather Stations

Station Location Temp. Windchill Dew Point Humidity Wind Precip. Elev Updated Type
                   

Watches & Warnings

There are currently no watches in effect.